Time;durP1;ratioP1;P1;durP2;ratioP2;P2;SDS_P1;SDS_P2;PMS_P1;PMS_P2;Temp;Humidity;BMP_temperature;BMP_pressure;BME280_temperature;BME280_humidity;BME280_pressure;Samples;Min_cycle;Max_cycle;Signal;HPM_P1;HPM_P2
2024/02/12 00:01:37;;;;;;;;;;;;;;;10.67;52.07;98652.63;4937187;28;98053;-70
2024/02/12 00:04:07;;;;;;;;;;;;;;;10.66;52.20;98649.16;4937646;28;98703;-66
2024/02/12 00:06:35;;;;;;;;;;;;;;;10.66;51.88;98649.16;4940795;28;98546;-70
2024/02/12 00:09:04;;;;;;;;;;;;;;;10.66;52.16;98648.38;4909664;28;98168;-66
2024/02/12 00:11:31;;;;;;;;;;;;;;;10.66;52.24;98659.13;4939954;28;98340;-66
2024/02/12 00:13:57;;;;;;;;;;;;;;;10.64;52.13;98656.72;4909235;28;99343;-70
2024/02/12 00:16:26;;;;;;;;;;;;;;;10.65;52.21;98661.03;4923927;28;102797;-66
2024/02/12 00:18:52;;;;;;;;;;;;;;;10.65;52.16;98657.53;4908852;28;98204;-70
2024/02/12 00:21:20;;;;;;;;;;;;;;;10.64;52.20;98662.13;4946747;28;98120;-65
2024/02/12 00:23:47;;;;;;;;;;;;;;;10.64;51.84;98664.03;4912813;28;98584;-66
2024/02/12 00:26:14;;;;;;;;;;;;;;;10.64;51.93;98661.34;4919742;28;98158;-66
2024/02/12 00:28:42;;;;;;;;;;;;;;;10.64;52.32;98664.81;4903392;28;99599;-70
2024/02/12 00:31:12;;;;;;;;;;;;;;;10.64;51.84;98669.41;4905143;28;99201;-65
2024/02/12 00:33:42;;;;;;;;;;;;;;;10.63;51.98;98665.94;4940463;28;98279;-70
2024/02/12 00:36:09;;;;;;;;;;;;;;;10.63;52.38;98668.63;4905797;28;99751;-70
2024/02/12 00:38:39;;;;;;;;;;;;;;;10.63;52.15;98671.31;4902253;28;98222;-65
2024/02/12 00:41:11;;;;;;;;;;;;;;;10.62;52.18;98669.75;4910453;28;98409;-65
2024/02/12 00:43:44;;;;;;;;;;;;;;;10.62;52.09;98675.13;4923683;28;98075;-66
2024/02/12 00:46:12;;;;;;;;;;;;;;;10.63;52.17;98686.69;4933506;28;98140;-70
2024/02/12 00:48:39;;;;;;;;;;;;;;;10.62;52.20;98682.41;4907342;28;98195;-70
2024/02/12 00:51:06;;;;;;;;;;;;;;;10.62;52.38;98683.22;4904368;28;98154;-65
2024/02/12 00:53:40;;;;;;;;;;;;;;;10.62;52.25;98683.22;4909477;28;98533;-66
2024/02/12 00:56:08;;;;;;;;;;;;;;;10.61;51.76;98680.81;4919500;28;98324;-70
2024/02/12 00:58:38;;;;;;;;;;;;;;;10.63;52.19;98684.00;4942184;28;98360;-70
2024/02/12 01:01:07;;;;;;;;;;;;;;;10.61;52.13;98684.31;4905578;28;98973;-66
2024/02/12 01:03:35;;;;;;;;;;;;;;;10.63;52.25;98684.00;4903810;28;98253;-66
2024/02/12 01:06:02;;;;;;;;;;;;;;;10.61;52.18;98684.31;4909951;28;98235;-69
2024/02/12 01:08:29;;;;;;;;;;;;;;;10.62;51.82;98688.59;4926533;28;98020;-70
2024/02/12 01:10:56;;;;;;;;;;;;;;;10.61;52.23;98695.09;4898057;28;98783;-70
2024/02/12 01:13:23;;;;;;;;;;;;;;;10.61;52.29;98692.41;4919976;28;98109;-70
2024/02/12 01:15:51;;;;;;;;;;;;;;;10.61;52.18;98688.91;4926286;28;98407;-70
2024/02/12 01:18:20;;;;;;;;;;;;;;;10.61;52.10;98692.41;4919818;28;98429;-66
2024/02/12 01:20:46;;;;;;;;;;;;;;;10.62;52.00;98701.28;4923348;28;98228;-66
2024/02/12 01:23:15;;;;;;;;;;;;;;;10.61;52.00;98695.09;4923060;28;98999;-70
2024/02/12 01:25:42;;;;;;;;;;;;;;;10.61;52.27;98692.41;4923492;28;98206;-66
2024/02/12 01:28:09;;;;;;;;;;;;;;;10.62;52.13;98694.00;4927579;28;98049;-66
2024/02/12 01:30:37;;;;;;;;;;;;;;;10.60;51.90;98693.50;4925484;28;99578;-70
2024/02/12 01:33:08;;;;;;;;;;;;;;;10.60;52.19;98696.19;4948266;28;99470;-65
2024/02/12 01:35:36;;;;;;;;;;;;;;;10.60;51.93;98690.00;4910833;28;97870;-70
2024/02/12 01:38:08;;;;;;;;;;;;;;;10.59;52.04;98693.81;4923131;28;98841;-70
2024/02/12 01:40:36;;;;;;;;;;;;;;;10.59;52.18;98691.13;4922497;28;98547;-65
2024/02/12 01:43:04;;;;;;;;;;;;;;;10.57;52.35;98692.22;4929688;28;98567;-65
2024/02/12 01:45:31;;;;;;;;;;;;;;;10.57;51.97;98689.53;4906027;28;99595;-66
2024/02/12 01:47:58;;;;;;;;;;;;;;;10.57;52.26;98692.22;4942440;28;98108;-70
2024/02/12 01:50:27;;;;;;;;;;;;;;;10.57;51.89;98694.94;4921572;28;98625;-66
2024/02/12 01:52:55;;;;;;;;;;;;;;;10.57;52.12;98691.41;4927196;28;99050;-65
2024/02/12 01:55:26;;;;;;;;;;;;;;;10.56;51.91;98695.22;4921570;28;98512;-70
2024/02/12 01:57:53;;;;;;;;;;;;;;;10.55;52.21;98699.81;4945043;28;97982;-70
2024/02/12 02:00:23;;;;;;;;;;;;;;;10.55;52.14;98699.81;4915300;28;98332;-70
2024/02/12 02:02:49;;;;;;;;;;;;;;;10.55;52.02;98696.31;4913994;28;98214;-70
2024/02/12 02:05:16;;;;;;;;;;;;;;;10.55;51.94;98696.31;4911354;28;98277;-70
2024/02/12 02:07:44;;;;;;;;;;;;;;;10.53;52.15;98702.03;4921928;28;98208;-70
2024/02/12 02:10:14;;;;;;;;;;;;;;;10.53;51.99;98696.66;4921913;28;98183;-65
2024/02/12 02:12:40;;;;;;;;;;;;;;;10.54;52.35;98692.84;4931529;28;100044;-70
2024/02/12 02:15:07;;;;;;;;;;;;;;;10.53;51.79;98704.72;4926498;28;98136;-70
2024/02/12 02:17:36;;;;;;;;;;;;;;;10.52;52.38;98703.13;4948196;28;97992;-65
2024/02/12 02:20:04;;;;;;;;;;;;;;;10.53;52.31;98709.31;4940751;28;98118;-65
2024/02/12 02:22:31;;;;;;;;;;;;;;;10.53;51.87;98709.31;4913879;28;101881;-65
2024/02/12 02:24:58;;;;;;;;;;;;;;;10.53;52.10;98706.59;4958860;28;98825;-69
2024/02/12 02:27:28;;;;;;;;;;;;;;;10.52;52.24;98705.81;4942526;28;97999;-69
2024/02/12 02:29:54;;;;;;;;;;;;;;;10.52;51.92;98707.72;4931657;28;98148;-70
2024/02/12 02:32:23;;;;;;;;;;;;;;;10.51;52.02;98708.81;4927332;28;98568;-69
2024/02/12 02:34:50;;;;;;;;;;;;;;;10.51;52.02;98711.53;4926685;28;98374;-70
2024/02/12 02:37:18;;;;;;;;;;;;;;;10.51;51.75;98706.13;4926369;28;98360;-70
2024/02/12 02:39:46;;;;;;;;;;;;;;;10.49;52.21;98709.16;4945732;28;98338;-65
2024/02/12 02:42:13;;;;;;;;;;;;;;;10.51;52.19;98714.22;4932465;28;98281;-69
2024/02/12 02:44:41;;;;;;;;;;;;;;;10.49;52.30;98708.31;4912720;28;98309;-69
2024/02/12 02:47:10;;;;;;;;;;;;;;;10.50;52.42;98709.94;4912392;28;98194;-69
2024/02/12 02:49:43;;;;;;;;;;;;;;;10.50;52.15;98715.31;4908642;28;99558;-66
2024/02/12 02:52:11;;;;;;;;;;;;;;;10.49;52.21;98713.72;4928499;28;98192;-65
2024/02/12 02:54:38;;;;;;;;;;;;;;;10.49;51.97;98721.78;4944064;28;98636;-65
2024/02/12 02:57:07;;;;;;;;;;;;;;;10.48;52.40;98721.00;4927930;28;98062;-66
2024/02/12 02:59:35;;;;;;;;;;;;;;;10.49;52.17;98719.09;4902602;28;98191;-69
2024/02/12 03:02:01;;;;;;;;;;;;;;;10.49;52.14;98719.09;4922330;28;100678;-69
2024/02/12 03:04:28;;;;;;;;;;;;;;;10.48;52.27;98723.69;4929076;28;98166;-69
2024/02/12 03:06:56;;;;;;;;;;;;;;;10.48;51.89;98725.59;4924842;28;98137;-65
2024/02/12 03:09:22;;;;;;;;;;;;;;;10.47;52.20;98721.31;4913092;28;101636;-69
2024/02/12 03:11:51;;;;;;;;;;;;;;;10.46;52.45;98725.13;4913638;28;100121;-70
2024/02/12 03:14:17;;;;;;;;;;;;;;;10.47;51.74;98734.78;4915329;28;99421;-65
2024/02/12 03:16:44;;;;;;;;;;;;;;;10.47;52.05;98737.50;4907271;28;98347;-65
2024/02/12 03:19:14;;;;;;;;;;;;;;;10.45;51.98;98729.72;4921192;28;98041;-65
2024/02/12 03:21:41;;;;;;;;;;;;;;;10.45;51.94;98736.97;4911428;28;98899;-65
2024/02/12 03:24:07;;;;;;;;;;;;;;;10.45;52.01;98729.72;4916755;28;98033;-69
2024/02/12 03:26:34;;;;;;;;;;;;;;;10.45;51.92;98736.97;4945081;28;98123;-69
2024/02/12 03:29:02;;;;;;;;;;;;;;;10.44;51.98;98748.88;4933937;28;98272;-65
2024/02/12 03:31:30;;;;;;;;;;;;;;;10.44;52.02;98738.88;4906252;28;98234;-65
2024/02/12 03:33:58;;;;;;;;;;;;;;;10.43;52.23;98740.00;4923476;28;99468;-65
2024/02/12 03:36:24;;;;;;;;;;;;;;;10.43;52.20;98744.59;4945955;28;98050;-69
2024/02/12 03:38:51;;;;;;;;;;;;;;;10.44;52.36;98748.88;4910201;28;98364;-69
2024/02/12 03:41:24;;;;;;;;;;;;;;;10.43;52.24;98745.38;4903826;28;98447;-69
2024/02/12 03:43:53;;;;;;;;;;;;;;;10.42;52.21;98753.78;4909525;28;98379;-69
2024/02/12 03:46:20;;;;;;;;;;;;;;;10.42;52.01;98746.50;4924172;28;98392;-69
2024/02/12 03:59:54;;;;;;;;;;;;;;;10.41;51.98;98755.66;4923714;28;98229;-65
2024/02/12 04:02:21;;;;;;;;;;;;;;;10.41;51.84;98762.94;4920019;28;98162;-69
2024/02/12 04:04:51;;;;;;;;;;;;;;;10.41;52.22;98768.34;4941004;28;97950;-65
2024/02/12 04:07:18;;;;;;;;;;;;;;;10.40;52.25;98759.47;4904480;28;98038;-69
2024/02/12 04:09:45;;;;;;;;;;;;;;;10.40;52.34;98770.25;4919208;28;98989;-69
2024/02/12 04:12:12;;;;;;;;;;;;;;;10.39;52.39;98765.16;4905740;28;98155;-69
2024/02/12 04:14:44;;;;;;;;;;;;;;;10.40;51.98;98772.13;4902728;28;98958;-69
2024/02/12 04:17:15;;;;;;;;;;;;;;;10.40;51.94;98766.75;4906796;28;99066;-69
2024/02/12 04:19:42;;;;;;;;;;;;;;;10.39;51.88;98775.94;4928684;28;97762;-69
2024/02/12 04:22:09;;;;;;;;;;;;;;;10.38;52.50;98774.34;4907285;28;98213;-69
2024/02/12 04:24:42;;;;;;;;;;;;;;;10.38;52.42;98777.84;4900975;28;98283;-65
2024/02/12 04:27:10;;;;;;;;;;;;;;;10.39;51.88;98781.31;4907441;28;97927;-65
2024/02/12 04:29:38;;;;;;;;;;;;;;;10.39;52.15;98789.41;4924157;28;98061;-69
2024/02/12 04:32:14;;;;;;;;;;;;;;;10.38;52.28;98791.31;4932342;28;98295;-65
2024/02/12 04:34:43;;;;;;;;;;;;;;;10.37;51.99;98784.31;4936054;28;98310;-65
2024/02/12 04:37:10;;;;;;;;;;;;;;;10.38;52.39;98799.38;4938368;28;98649;-69
2024/02/12 04:39:38;;;;;;;;;;;;;;;10.37;52.41;98791.59;4918147;28;97906;-64
2024/02/12 04:42:06;;;;;;;;;;;;;;;10.37;52.30;98788.91;4919707;28;98116;-65
2024/02/12 04:44:33;;;;;;;;;;;;;;;10.37;52.29;98802.38;4924898;28;98704;-65
2024/02/12 04:47:04;;;;;;;;;;;;;;;10.37;52.06;98802.38;4940264;28;98028;-65
2024/02/12 04:49:32;;;;;;;;;;;;;;;10.37;52.14;98802.38;4905465;28;98254;-65
2024/02/12 04:51:58;;;;;;;;;;;;;;;10.36;51.82;98808.88;4909219;28;98312;-69
2024/02/12 04:54:25;;;;;;;;;;;;;;;10.35;52.25;98809.97;4923927;28;98142;-69
2024/02/12 04:56:53;;;;;;;;;;;;;;;10.35;52.02;98813.47;4908825;28;100363;-65
2024/02/12 04:59:22;;;;;;;;;;;;;;;10.34;52.02;98816.47;4899902;28;102349;-65
2024/02/12 05:01:50;;;;;;;;;;;;;;;10.35;52.10;98821.53;4920863;28;98536;-69
2024/02/12 05:04:19;;;;;;;;;;;;;;;10.34;52.32;98832.63;4908459;28;97967;-65
2024/02/12 05:06:46;;;;;;;;;;;;;;;10.35;52.25;98832.31;4916916;28;98139;-65
2024/02/12 05:09:15;;;;;;;;;;;;;;;10.34;52.36;98835.31;4912477;28;99689;-69
2024/02/12 05:11:42;;;;;;;;;;;;;;;10.34;51.87;98836.13;4905163;28;98139;-69
2024/02/12 05:14:08;;;;;;;;;;;;;;;10.33;52.19;98837.19;4919304;28;100516;-69
2024/02/12 05:16:35;;;;;;;;;;;;;;;10.32;52.36;98828.31;4915389;28;98336;-70
2024/02/12 05:24:33;;;;;;;;;;;;;;;10.32;52.29;98838.31;4927109;28;98957;-69
2024/02/12 05:27:00;;;;;;;;;;;;;;;10.32;52.08;98838.31;4926322;28;98149;-65
2024/02/12 05:29:26;;;;;;;;;;;;;;;10.30;52.41;98838.63;4907768;28;98174;-69
2024/02/12 05:31:54;;;;;;;;;;;;;;;10.31;52.30;98844.81;4916655;28;98235;-65
2024/02/12 05:34:23;;;;;;;;;;;;;;;10.31;52.35;98847.50;4926146;28;98299;-65
2024/02/12 05:36:56;;;;;;;;;;;;;;;10.31;51.97;98844.81;4908460;28;98578;-70
2024/02/12 05:39:23;;;;;;;;;;;;;;;10.30;52.29;98852.09;4922015;28;99014;-65
2024/02/12 05:41:51;;;;;;;;;;;;;;;10.30;52.28;98851.28;4919431;28;97930;-69
2024/02/12 05:44:17;;;;;;;;;;;;;;;10.30;52.11;98849.41;4923468;28;98426;-70
2024/02/12 05:46:43;;;;;;;;;;;;;;;10.29;52.21;98853.16;4901729;28;98332;-69
2024/02/12 05:49:15;;;;;;;;;;;;;;;10.29;52.31;98855.84;4924904;28;98265;-65
2024/02/12 05:51:43;;;;;;;;;;;;;;;10.29;52.25;98853.16;4923396;28;98000;-66
2024/02/12 05:54:09;;;;;;;;;;;;;;;10.30;52.12;98862.06;4935933;28;98185;-69
2024/02/12 05:56:39;;;;;;;;;;;;;;;10.30;51.98;98862.06;4942270;28;98210;-69
2024/02/12 05:59:06;;;;;;;;;;;;;;;10.29;52.40;98865.84;4924194;28;99050;-69
2024/02/12 06:01:32;;;;;;;;;;;;;;;10.28;52.30;98866.94;4911396;28;98137;-69
2024/02/12 06:04:00;;;;;;;;;;;;;;;10.27;52.00;98863.47;4924920;28;98037;-69
2024/02/12 06:06:27;;;;;;;;;;;;;;;10.28;52.44;98869.63;4909368;28;98205;-69
2024/02/12 06:08:53;;;;;;;;;;;;;;;10.28;52.23;98880.41;4918875;28;98267;-65
2024/02/12 06:11:21;;;;;;;;;;;;;;;10.27;52.06;98886.91;4918516;28;98195;-65
2024/02/12 06:13:48;;;;;;;;;;;;;;;10.27;52.29;98885.00;4924978;28;98459;-69
2024/02/12 06:16:15;;;;;;;;;;;;;;;10.25;52.30;98884.50;4893817;28;98187;-65
2024/02/12 06:18:42;;;;;;;;;;;;;;;10.26;52.32;98888.00;4885304;28;99751;-69
2024/02/12 06:21:09;;;;;;;;;;;;;;;10.26;52.04;98888.81;4915430;28;99398;-65
2024/02/12 06:23:37;;;;;;;;;;;;;;;10.25;52.50;98894.47;4888451;28;98182;-65
2024/02/12 06:26:04;;;;;;;;;;;;;;;10.25;52.36;98891.78;4901566;28;98709;-66
2024/02/12 06:28:30;;;;;;;;;;;;;;;10.25;52.04;98897.16;4916901;28;98497;-69
2024/02/12 06:30:57;;;;;;;;;;;;;;;10.25;52.01;98897.97;4903570;28;98312;-65
2024/02/12 06:33:23;;;;;;;;;;;;;;;10.26;52.38;98896.09;4888406;28;98344;-69
2024/02/12 06:35:53;;;;;;;;;;;;;;;10.26;52.05;98910.34;4890852;28;97978;-65
2024/02/12 06:38:20;;;;;;;;;;;;;;;10.27;52.15;98913.84;4901394;28;100117;-69
2024/02/12 06:40:48;;;;;;;;;;;;;;;10.26;51.92;98909.56;4886679;28;98383;-70
2024/02/12 06:43:14;;;;;;;;;;;;;;;10.28;52.05;98918.91;4901004;28;98080;-69
2024/02/12 06:45:41;;;;;;;;;;;;;;;10.29;52.04;98917.00;4896669;28;98390;-69
2024/02/12 06:48:09;;;;;;;;;;;;;;;10.29;52.03;98925.09;4883608;28;100441;-65
2024/02/12 06:50:37;;;;;;;;;;;;;;;10.32;51.78;98927.97;4877862;28;98077;-65
2024/02/12 06:53:06;;;;;;;;;;;;;;;10.34;52.22;98933.09;4906894;28;98027;-69
2024/02/12 06:55:34;;;;;;;;;;;;;;;10.35;51.82;98934.66;4889037;28;98291;-65
2024/02/12 06:58:01;;;;;;;;;;;;;;;10.38;51.98;98938.66;4881482;28;98090;-65
2024/02/12 07:00:29;;;;;;;;;;;;;;;10.40;51.70;98953.41;4905537;28;98359;-65
2024/02/12 07:02:56;;;;;;;;;;;;;;;10.43;52.19;98946.63;4901269;28;98219;-69
2024/02/12 07:05:25;;;;;;;;;;;;;;;10.46;51.88;98948.72;4905780;28;99219;-65
2024/02/12 07:07:53;;;;;;;;;;;;;;;10.47;52.01;98956.50;4921949;28;97922;-65
2024/02/12 07:10:23;;;;;;;;;;;;;;;10.51;52.25;98960.16;4891382;28;98075;-65
2024/02/12 07:12:50;;;;;;;;;;;;;;;10.53;52.13;98963.38;4908587;28;97927;-65
2024/02/12 07:15:18;;;;;;;;;;;;;;;10.56;51.80;98961.94;4902622;28;98152;-65
2024/02/12 07:17:46;;;;;;;;;;;;;;;10.60;51.80;98970.22;4908237;28;98444;-65
2024/02/12 07:20:13;;;;;;;;;;;;;;;10.62;52.07;98971.53;4904746;28;99563;-65
2024/02/12 07:22:39;;;;;;;;;;;;;;;10.66;52.22;98977.13;4902759;28;98238;-65
2024/02/12 07:25:08;;;;;;;;;;;;;;;10.71;51.87;98975.09;4902964;28;98318;-65
2024/02/12 07:27:35;;;;;;;;;;;;;;;10.75;51.84;98980.66;4901777;28;98165;-65
2024/02/12 07:30:02;;;;;;;;;;;;;;;10.79;51.63;98993.22;4919802;28;98594;-64
2024/02/12 07:32:29;;;;;;;;;;;;;;;10.83;51.74;98990.72;4906106;28;98947;-65
2024/02/12 07:34:57;;;;;;;;;;;;;;;10.87;51.96;98991.72;4891759;28;98399;-65
2024/02/12 07:37:24;;;;;;;;;;;;;;;10.93;51.74;98993.19;4918298;28;98597;-69
2024/02/12 07:39:51;;;;;;;;;;;;;;;10.98;51.78;99003.88;4888477;28;98903;-69
2024/02/12 07:42:17;;;;;;;;;;;;;;;11.05;51.85;99006.16;4897940;28;98170;-69
2024/02/12 07:44:45;;;;;;;;;;;;;;;11.12;51.73;99008.41;4887272;28;98144;-70
2024/02/12 07:47:17;;;;;;;;;;;;;;;11.23;51.63;99007.06;4882322;28;98208;-65
2024/02/12 07:49:45;;;;;;;;;;;;;;;11.30;51.59;99015.53;4886179;28;98037;-70
2024/02/12 07:52:16;;;;;;;;;;;;;;;11.35;51.81;99018.09;4887038;28;100201;-65
2024/02/12 07:54:44;;;;;;;;;;;;;;;11.36;51.70;99021.56;4905309;28;98174;-65
2024/02/12 07:57:12;;;;;;;;;;;;;;;11.30;51.63;99019.00;4919182;28;97986;-70
2024/02/12 07:59:39;;;;;;;;;;;;;;;11.30;51.74;99027.09;4889968;28;98201;-69
2024/02/12 08:02:07;;;;;;;;;;;;;;;11.32;51.69;99021.41;4896993;28;99154;-70
2024/02/12 08:04:34;;;;;;;;;;;;;;;11.38;51.70;99027.47;4905740;28;98659;-65
2024/02/12 08:07:00;;;;;;;;;;;;;;;11.43;51.69;99030.84;4901760;28;98115;-65
2024/02/12 08:09:28;;;;;;;;;;;;;;;11.48;51.79;99036.13;4888853;28;98609;-65
2024/02/12 08:11:56;;;;;;;;;;;;;;;11.49;51.61;99045.81;4905071;28;98488;-65
2024/02/12 08:14:26;;;;;;;;;;;;;;;11.52;51.68;99049.81;4907536;28;98734;-69
2024/02/12 08:16:53;;;;;;;;;;;;;;;11.55;51.51;99055.38;4910901;28;99865;-69
2024/02/12 08:19:22;;;;;;;;;;;;;;;11.59;51.61;99052.84;4928032;28;98142;-66
2024/02/12 08:21:49;;;;;;;;;;;;;;;11.64;51.68;99051.94;4921657;28;97857;-65
2024/02/12 08:24:17;;;;;;;;;;;;;;;11.67;51.68;99062.09;4928989;28;98388;-65
2024/02/12 08:26:44;;;;;;;;;;;;;;;11.73;51.71;99058.97;4909385;28;98119;-65
2024/02/12 08:29:12;;;;;;;;;;;;;;;11.77;51.68;99061.88;4917441;28;101453;-65
2024/02/12 08:31:40;;;;;;;;;;;;;;;11.79;51.54;99067.75;4938943;28;98170;-69
2024/02/12 08:34:06;;;;;;;;;;;;;;;11.82;51.69;99071.72;4919406;28;98060;-69
2024/02/12 08:36:33;;;;;;;;;;;;;;;11.84;51.77;99069.56;4908326;28;98151;-69
2024/02/12 08:39:00;;;;;;;;;;;;;;;11.86;51.38;99080.84;4936227;28;97797;-65
2024/02/12 08:41:27;;;;;;;;;;;;;;;11.89;51.60;99078.31;4910685;28;102205;-67
2024/02/12 08:43:56;;;;;;;;;;;;;;;11.95;51.50;99076.31;4943112;28;98392;-65
2024/02/12 08:46:24;;;;;;;;;;;;;;;12.04;51.34;99086.03;4935358;28;98477;-65
2024/02/12 08:48:51;;;;;;;;;;;;;;;12.06;51.60;99083.00;4926970;28;98604;-65
2024/02/12 08:51:18;;;;;;;;;;;;;;;12.07;51.62;99083.81;4922325;28;99002;-70
2024/02/12 08:53:45;;;;;;;;;;;;;;;12.14;51.49;99084.16;4913441;28;97739;-69
2024/02/12 08:56:17;;;;;;;;;;;;;;;12.20;51.29;99077.53;4925799;28;98913;-65
2024/02/12 08:58:45;;;;;;;;;;;;;;;12.23;51.41;99083.09;4927204;28;98814;-70
2024/02/12 09:01:12;;;;;;;;;;;;;;;12.27;51.37;99094.09;4935049;28;99629;-69
2024/02/12 09:03:42;;;;;;;;;;;;;;;12.29;51.42;99092.66;4921457;28;98169;-65
2024/02/12 09:06:12;;;;;;;;;;;;;;;12.36;51.30;99094.91;4941464;28;98135;-70
2024/02/12 09:08:42;;;;;;;;;;;;;;;12.41;51.33;99094.75;4905650;28;99743;-65
2024/02/12 09:11:11;;;;;;;;;;;;;;;12.48;51.51;99097.81;4940506;28;99401;-65
2024/02/12 09:13:42;;;;;;;;;;;;;;;12.57;51.23;99091.66;4932669;28;98628;-70
2024/02/12 09:16:09;;;;;;;;;;;;;;;12.69;51.25;99106.19;4919869;28;97942;-70
2024/02/12 09:18:36;;;;;;;;;;;;;;;12.75;50.94;99102.19;4908748;28;98063;-69
2024/02/12 09:21:03;;;;;;;;;;;;;;;12.84;51.24;99112.25;4923613;28;98039;-70
2024/02/12 09:23:30;;;;;;;;;;;;;;;12.95;50.93;99114.34;4911075;28;98222;-65
2024/02/12 09:25:57;;;;;;;;;;;;;;;13.08;50.96;99112.59;4926517;28;98357;-70
2024/02/12 09:28:26;;;;;;;;;;;;;;;13.21;51.12;99108.19;4887320;28;99770;-70
2024/02/12 09:30:57;;;;;;;;;;;;;;;13.37;50.98;99124.78;4909461;28;98198;-65
2024/02/12 09:33:24;;;;;;;;;;;;;;;13.56;50.91;99119.84;4926274;28;98077;-70
2024/02/12 09:35:51;;;;;;;;;;;;;;;13.73;50.47;99127.94;4913570;28;98308;-70
2024/02/12 09:38:19;;;;;;;;;;;;;;;13.97;50.46;99124.72;4889643;28;99218;-65
2024/02/12 09:40:46;;;;;;;;;;;;;;;14.18;50.59;99121.31;4909114;28;99964;-70
2024/02/12 09:43:13;;;;;;;;;;;;;;;14.33;50.41;99122.72;4904482;28;98455;-70
2024/02/12 09:45:45;;;;;;;;;;;;;;;14.43;50.25;99125.88;4941080;28;98133;-70
2024/02/12 09:48:12;;;;;;;;;;;;;;;14.58;50.51;99121.03;4907635;28;98199;-65
2024/02/12 09:50:40;;;;;;;;;;;;;;;14.73;50.15;99125.91;4905120;28;97889;-65
2024/02/12 09:53:09;;;;;;;;;;;;;;;14.85;50.44;99130.63;4923246;28;103667;-70
2024/02/12 09:55:36;;;;;;;;;;;;;;;14.94;50.41;99128.69;4905588;28;98073;-70
2024/02/12 09:58:04;;;;;;;;;;;;;;;14.98;50.34;99135.06;4923473;28;100635;-68
2024/02/12 10:00:32;;;;;;;;;;;;;;;14.93;50.38;99138.75;4923242;28;100877;-65
2024/02/12 10:03:00;;;;;;;;;;;;;;;14.89;50.48;99132.38;4934784;28;98038;-70
2024/02/12 10:05:29;;;;;;;;;;;;;;;14.94;50.62;99145.75;4915667;28;102325;-65
2024/02/12 10:07:57;;;;;;;;;;;;;;;15.01;50.73;99141.72;4902580;28;98102;-70
2024/02/12 10:10:24;;;;;;;;;;;;;;;15.05;50.74;99148.06;4920858;28;99507;-65
2024/02/12 10:12:52;;;;;;;;;;;;;;;15.14;50.45;99149.63;4920008;28;98208;-70
2024/02/12 10:15:23;;;;;;;;;;;;;;;15.30;50.55;99146.34;4921535;28;98477;-70
2024/02/12 10:17:50;;;;;;;;;;;;;;;15.43;50.58;99162.34;4940365;28;98162;-65
2024/02/12 10:20:18;;;;;;;;;;;;;;;15.54;50.35;99154.63;4923928;28;98201;-65
2024/02/12 10:22:46;;;;;;;;;;;;;;;15.58;50.54;99157.47;4929192;28;97981;-70
2024/02/12 10:25:13;;;;;;;;;;;;;;;15.63;50.39;99165.41;4940950;28;98200;-67
2024/02/12 10:27:41;;;;;;;;;;;;;;;15.69;50.43;99164.13;4927113;28;97927;-65
2024/02/12 10:30:08;;;;;;;;;;;;;;;15.64;50.71;99175.13;4924338;28;98076;-70
2024/02/12 10:32:35;;;;;;;;;;;;;;;15.64;50.71;99172.41;4949176;28;98152;-65
2024/02/12 10:35:07;;;;;;;;;;;;;;;15.55;50.90;99172.50;4948653;28;99597;-65
2024/02/12 10:37:35;;;;;;;;;;;;;;;15.43;50.82;99175.13;4928577;28;98890;-65
2024/02/12 10:40:08;;;;;;;;;;;;;;;15.31;51.20;99184.00;4927805;28;98331;-65
2024/02/12 10:42:41;;;;;;;;;;;;;;;15.16;51.38;99177.22;4906443;28;97997;-69
2024/02/12 10:45:08;;;;;;;;;;;;;;;15.03;51.35;99175.56;4910210;28;99563;-65
2024/02/12 10:47:36;;;;;;;;;;;;;;;14.97;51.33;99182.28;4911393;28;98107;-65
2024/02/12 10:50:04;;;;;;;;;;;;;;;14.88;51.47;99176.91;4922162;28;102941;-70
2024/02/12 10:52:35;;;;;;;;;;;;;;;14.81;51.63;99189.38;4913109;28;98171;-65
2024/02/12 10:55:02;;;;;;;;;;;;;;;14.71;51.39;99185.13;4924644;28;98154;-70
2024/02/12 10:57:29;;;;;;;;;;;;;;;14.63;51.38;99189.47;4925803;28;97963;-70
2024/02/12 11:00:05;;;;;;;;;;;;;;;14.53;51.86;99191.72;4913423;28;98918;-65
2024/02/12 11:02:43;;;;;;;;;;;;;;;14.46;51.72;99190.28;4919116;28;97897;-70
2024/02/12 11:05:13;;;;;;;;;;;;;;;14.40;51.84;99194.28;4928618;28;98409;-70
2024/02/12 11:07:47;;;;;;;;;;;;;;;14.33;51.78;99196.69;4912723;28;98201;-65
2024/02/12 11:10:21;;;;;;;;;;;;;;;14.32;51.81;99195.09;4946761;28;97945;-70
2024/02/12 11:12:48;;;;;;;;;;;;;;;14.35;51.33;99194.47;4915840;28;99971;-70
2024/02/12 11:15:28;;;;;;;;;;;;;;;14.49;51.50;99197.00;4927375;28;98079;-65
2024/02/12 11:17:55;;;;;;;;;;;;;;;14.52;51.18;99199.06;4912849;28;98019;-70
2024/02/12 11:20:25;;;;;;;;;;;;;;;14.57;51.44;99203.50;4915757;28;98043;-66
2024/02/12 11:22:54;;;;;;;;;;;;;;;14.59;51.21;99204.00;4914815;28;98052;-65
2024/02/12 11:25:21;;;;;;;;;;;;;;;14.59;51.38;99207.50;4910120;28;99603;-70
2024/02/12 11:27:52;;;;;;;;;;;;;;;14.57;51.34;99203.50;4894769;28;98334;-66
2024/02/12 11:30:19;;;;;;;;;;;;;;;14.52;51.34;99211.81;4946990;28;98586;-70
2024/02/12 11:32:52;;;;;;;;;;;;;;;14.52;51.38;99218.03;4914021;28;98068;-66
2024/02/12 11:35:23;;;;;;;;;;;;;;;14.63;51.53;99226.63;4945044;28;98526;-66
2024/02/12 11:37:59;;;;;;;;;;;;;;;14.68;51.05;99213.69;4932637;28;98245;-65
2024/02/12 11:40:25;;;;;;;;;;;;;;;14.76;51.23;99222.13;4910701;28;98195;-70
2024/02/12 11:42:55;;;;;;;;;;;;;;;14.76;51.31;99222.13;4910559;28;98561;-65
2024/02/12 11:45:23;;;;;;;;;;;;;;;14.81;51.30;99217.28;4925576;28;98433;-70
2024/02/12 11:47:51;;;;;;;;;;;;;;;14.80;51.30;99217.63;4929676;28;98710;-66
2024/02/12 11:50:25;;;;;;;;;;;;;;;14.88;51.05;99227.66;4918191;28;98178;-65
2024/02/12 11:52:55;;;;;;;;;;;;;;;14.93;51.08;99231.00;4911972;28;98929;-70
2024/02/12 11:55:21;;;;;;;;;;;;;;;15.07;51.03;99229.97;4910820;28;98434;-70
2024/02/12 11:57:48;;;;;;;;;;;;;;;15.22;50.96;99226.69;4896098;28;98828;-70
2024/02/12 12:00:28;;;;;;;;;;;;;;;15.26;51.00;99235.00;4909823;28;98306;-65
2024/02/12 12:02:55;;;;;;;;;;;;;;;15.27;50.85;99233.84;4928146;28;98133;-65
2024/02/12 12:05:24;;;;;;;;;;;;;;;15.18;51.20;99239.34;4897028;28;98295;-65
2024/02/12 12:07:51;;;;;;;;;;;;;;;15.14;51.35;99238.41;4915549;28;98431;-70
2024/02/12 12:10:26;;;;;;;;;;;;;;;15.27;51.09;99231.94;4947888;28;98372;-66
2024/02/12 12:12:53;;;;;;;;;;;;;;;15.39;50.97;99239.38;4898019;28;98005;-70
2024/02/12 12:15:20;;;;;;;;;;;;;;;15.46;50.84;99236.94;4927493;28;98308;-70
2024/02/12 12:17:52;;;;;;;;;;;;;;;15.50;50.97;99246.03;4918785;28;100329;-65
2024/02/12 12:20:20;;;;;;;;;;;;;;;15.52;50.91;99240.25;4908482;28;98093;-66
2024/02/12 12:22:47;;;;;;;;;;;;;;;15.54;50.99;99248.88;4922466;28;98083;-70
2024/02/12 12:25:18;;;;;;;;;;;;;;;15.52;50.93;99249.19;4907394;28;99419;-70
2024/02/12 12:27:45;;;;;;;;;;;;;;;15.49;51.08;99247.16;4911396;28;99165;-70
2024/02/12 12:30:16;;;;;;;;;;;;;;;15.44;51.31;99256.28;4926260;28;97945;-70
2024/02/12 12:32:43;;;;;;;;;;;;;;;15.52;51.16;99257.34;4925512;28;99011;-65
2024/02/12 12:35:10;;;;;;;;;;;;;;;15.71;50.88;99254.22;4909208;28;99551;-70
2024/02/12 12:37:38;;;;;;;;;;;;;;;15.84;50.78;99255.09;4912827;28;98150;-70
2024/02/12 12:40:10;;;;;;;;;;;;;;;15.91;50.78;99250.69;4906268;28;98164;-66
2024/02/12 12:42:37;;;;;;;;;;;;;;;16.06;50.68;99249.31;4909202;28;98345;-70
2024/02/12 12:45:08;;;;;;;;;;;;;;;16.29;50.49;99252.47;4930079;28;98096;-70
2024/02/12 12:47:36;;;;;;;;;;;;;;;16.52;50.38;99257.53;4906945;28;98024;-71
2024/02/12 12:50:04;;;;;;;;;;;;;;;16.36;50.53;99257.38;4911675;28;98641;-67
2024/02/12 12:52:31;;;;;;;;;;;;;;;16.31;50.81;99255.66;4922236;28;98428;-70
2024/02/12 12:54:58;;;;;;;;;;;;;;;16.14;51.00;99266.66;4926360;28;98696;-70
2024/02/12 12:57:25;;;;;;;;;;;;;;;15.89;51.42;99271.19;4923788;28;100030;-71
2024/02/12 12:59:52;;;;;;;;;;;;;;;15.67;51.53;99269.56;4906985;28;98030;-70
2024/02/12 13:02:20;;;;;;;;;;;;;;;15.47;51.86;99274.63;4921583;28;99436;-70
2024/02/12 13:04:47;;;;;;;;;;;;;;;15.28;51.95;99276.94;4911722;28;98566;-70
2024/02/12 13:07:14;;;;;;;;;;;;;;;15.13;51.95;99280.22;4921732;28;98883;-71